createdAt,value
2019-06-15T00:00:11.893Z,99.90
2019-06-15T00:02:41.634Z,99.90
2019-06-15T00:05:11.206Z,99.90
2019-06-15T00:07:40.656Z,99.90
2019-06-15T00:10:10.482Z,99.90
2019-06-15T00:12:40.085Z,99.90
2019-06-15T00:15:09.984Z,99.90
2019-06-15T00:17:39.780Z,99.90
2019-06-15T00:20:10.104Z,99.90
2019-06-15T00:22:39.777Z,99.90
2019-06-15T00:25:09.485Z,99.90
2019-06-15T00:27:38.960Z,99.90
2019-06-15T00:30:10.725Z,99.90
2019-06-15T00:32:40.188Z,99.90
2019-06-15T00:35:10.005Z,99.90
2019-06-15T00:37:39.519Z,99.90
2019-06-15T00:40:09.385Z,99.90
2019-06-15T00:42:38.974Z,99.90
2019-06-15T00:45:08.756Z,99.90
2019-06-15T00:47:38.660Z,99.90
2019-06-15T00:50:08.768Z,99.90
2019-06-15T00:52:38.243Z,99.90
2019-06-15T00:55:07.770Z,99.90
2019-06-15T00:57:37.612Z,99.90
2019-06-15T01:00:08.488Z,99.90
2019-06-15T01:02:38.039Z,99.90
2019-06-15T01:05:08.044Z,99.90
2019-06-15T01:07:37.881Z,99.90
2019-06-15T01:10:08.188Z,99.90
2019-06-15T01:12:37.735Z,99.90
2019-06-15T01:15:07.742Z,99.90
2019-06-15T01:17:37.366Z,99.90
2019-06-15T01:20:07.669Z,99.90
2019-06-15T01:22:37.456Z,99.90
2019-06-15T01:25:07.561Z,99.90
2019-06-15T01:27:38.882Z,99.90
2019-06-15T01:30:11.230Z,99.90
2019-06-15T01:32:40.707Z,99.90
2019-06-15T01:35:10.712Z,99.90
2019-06-15T01:37:40.191Z,99.90
2019-06-15T01:40:10.192Z,99.90
2019-06-15T01:42:39.747Z,99.90
2019-06-15T01:45:09.492Z,99.90
2019-06-15T01:47:39.040Z,99.90
2019-06-15T01:50:08.782Z,99.90
2019-06-15T01:52:38.258Z,99.90
2019-06-15T01:55:20.005Z,99.90
2019-06-15T01:57:39.031Z,99.90
2019-06-15T02:00:09.377Z,99.90
2019-06-15T02:02:38.944Z,99.90
2019-06-15T02:05:08.743Z,99.90
2019-06-15T02:07:38.486Z,99.90
2019-06-15T02:10:08.605Z,99.90
2019-06-15T02:12:38.189Z,99.90
2019-06-15T02:15:08.215Z,99.90
2019-06-15T02:17:37.983Z,99.90
2019-06-15T02:20:07.790Z,99.90
2019-06-15T02:22:39.293Z,99.90
2019-06-15T02:25:09.511Z,99.90
2019-06-15T02:27:39.112Z,99.90
2019-06-15T02:30:09.229Z,99.90
2019-06-15T02:32:38.840Z,99.90
2019-06-15T02:35:09.253Z,99.90
2019-06-15T02:37:38.875Z,99.90
2019-06-15T02:40:08.913Z,99.90
2019-06-15T02:42:38.451Z,99.90
2019-06-15T02:45:08.331Z,99.90
2019-06-15T02:47:37.915Z,99.90
2019-06-15T02:50:08.020Z,99.90
2019-06-15T02:52:37.648Z,99.90
2019-06-15T02:55:07.683Z,99.90
2019-06-15T02:57:37.287Z,99.90
2019-06-15T03:00:08.062Z,99.90
2019-06-15T03:02:37.884Z,99.90
2019-06-15T03:05:07.630Z,99.90
2019-06-15T03:07:37.186Z,99.90
2019-06-15T03:10:07.599Z,99.90
2019-06-15T03:12:38.317Z,99.90
2019-06-15T03:15:08.677Z,99.90
2019-06-15T03:17:38.325Z,99.90
2019-06-15T03:20:09.163Z,99.90
2019-06-15T03:22:38.767Z,99.90
2019-06-15T03:25:10.454Z,99.90
2019-06-15T03:27:39.993Z,99.90
2019-06-15T03:30:09.893Z,99.90
2019-06-15T03:32:39.497Z,99.90
2019-06-15T03:35:10.719Z,99.90
2019-06-15T03:37:40.308Z,99.90
2019-06-15T03:40:10.210Z,99.90
2019-06-15T03:42:39.831Z,99.90
2019-06-15T03:45:10.164Z,99.90
2019-06-15T03:47:39.763Z,99.90
2019-06-15T03:50:09.972Z,99.90
2019-06-15T03:52:39.507Z,99.90
2019-06-15T03:55:10.073Z,99.90
2019-06-15T03:57:39.948Z,99.90
2019-06-15T04:00:30.992Z,99.90
2019-06-15T04:03:00.868Z,99.90
2019-06-15T04:05:30.553Z,99.90
2019-06-15T04:08:00.103Z,99.90
2019-06-15T04:10:29.951Z,99.90
2019-06-15T04:12:59.420Z,99.90
2019-06-15T04:15:29.536Z,99.90
2019-06-15T04:17:59.018Z,99.90
2019-06-15T04:20:28.549Z,99.90
2019-06-15T04:22:58.022Z,99.90
2019-06-15T04:25:27.492Z,99.90
2019-06-15T04:27:56.959Z,99.90
2019-06-15T04:30:26.438Z,99.90
2019-06-15T04:32:56.401Z,99.90
2019-06-15T04:35:25.950Z,99.90
2019-06-15T04:37:55.436Z,99.90
2019-06-15T04:40:25.064Z,99.90
2019-06-15T04:42:54.523Z,99.90
2019-06-15T04:45:24.063Z,99.90
2019-06-15T04:47:53.536Z,99.90
2019-06-15T04:50:23.080Z,99.90
2019-06-15T04:52:52.554Z,99.90
2019-06-15T04:55:22.204Z,99.90
2019-06-15T04:57:51.674Z,99.90
2019-06-15T05:00:21.328Z,99.90
2019-06-15T05:02:50.856Z,99.90
2019-06-15T05:05:20.564Z,99.90
2019-06-15T05:07:50.106Z,99.90
2019-06-15T05:10:19.575Z,99.90
2019-06-15T05:12:49.149Z,99.90
2019-06-15T05:15:18.867Z,99.90
2019-06-15T05:17:48.410Z,99.90
2019-06-15T05:20:17.940Z,99.90
2019-06-15T05:22:47.421Z,99.90
2019-06-15T05:25:16.892Z,99.90
2019-06-15T05:27:46.709Z,99.90
2019-06-15T05:30:16.240Z,99.90
2019-06-15T05:32:45.747Z,99.90
2019-06-15T05:35:15.395Z,99.90
2019-06-15T05:37:44.871Z,99.90
2019-06-15T05:40:14.578Z,99.90
2019-06-15T05:42:44.053Z,99.90
2019-06-15T05:45:14.281Z,99.90
2019-06-15T05:47:43.750Z,99.90
2019-06-15T05:50:13.277Z,99.90
2019-06-15T05:52:45.425Z,99.90
2019-06-15T05:55:15.328Z,99.90
2019-06-15T05:57:44.808Z,99.90
2019-06-15T06:00:15.126Z,99.90
2019-06-15T06:02:44.605Z,99.90
2019-06-15T06:05:14.211Z,99.90
2019-06-15T06:07:43.687Z,99.90
2019-06-15T06:10:13.488Z,99.90
2019-06-15T06:12:42.971Z,99.90
2019-06-15T06:15:12.775Z,99.90
2019-06-15T06:17:42.492Z,99.90
2019-06-15T06:20:12.640Z,99.90
2019-06-15T06:22:42.116Z,99.90
2019-06-15T06:25:11.993Z,99.90
2019-06-15T06:27:41.473Z,99.90
2019-06-15T06:30:13.108Z,99.90
2019-06-15T06:32:42.590Z,99.90
2019-06-15T06:35:12.288Z,99.90
2019-06-15T06:37:42.073Z,99.90
2019-06-15T06:40:12.277Z,99.90
2019-06-15T06:42:41.756Z,99.90
2019-06-15T06:45:11.755Z,99.90
2019-06-15T06:47:41.358Z,99.90
2019-06-15T06:50:11.758Z,99.90
2019-06-15T06:52:41.535Z,99.90
2019-06-15T06:55:11.279Z,99.90
2019-06-15T06:57:51.835Z,99.90
2019-06-15T07:00:13.744Z,99.90
2019-06-15T07:02:43.676Z,99.90
2019-06-15T07:05:13.427Z,99.90
2019-06-15T07:07:43.201Z,99.90
2019-06-15T07:10:12.963Z,99.90
2019-06-15T07:12:42.440Z,99.90
2019-06-15T07:15:12.485Z,99.90
2019-06-15T07:17:42.024Z,99.90
2019-06-15T07:20:11.737Z,99.90
2019-06-15T07:22:41.323Z,99.90
2019-06-15T07:25:11.567Z,99.90
2019-06-15T07:27:41.104Z,99.90
2019-06-15T07:30:10.903Z,99.90
2019-06-15T07:32:40.708Z,99.90
2019-06-15T07:35:10.836Z,99.90
2019-06-15T07:37:40.372Z,99.90
2019-06-15T07:40:10.457Z,99.90
2019-06-15T07:42:40.083Z,99.90
2019-06-15T07:45:10.364Z,99.90
2019-06-15T07:47:40.037Z,99.90
2019-06-15T07:50:09.849Z,99.90
2019-06-15T07:52:39.328Z,98.00
2019-06-15T07:55:09.533Z,92.90
2019-06-15T07:57:39.290Z,83.50
2019-06-15T08:00:10.204Z,73.50
2019-06-15T08:02:39.740Z,68.40
2019-06-15T08:05:09.457Z,60.30
2019-06-15T08:07:39.096Z,60.00
2019-06-15T08:10:09.180Z,59.40
2019-06-15T08:12:38.646Z,56.30
2019-06-15T08:15:11.206Z,54.30
2019-06-15T08:17:40.664Z,54.20
2019-06-15T08:20:11.667Z,53.90
2019-06-15T08:22:41.191Z,53.30
2019-06-15T08:25:12.219Z,50.90
2019-06-15T08:27:41.767Z,47.70
2019-06-15T08:30:11.584Z,46.90
2019-06-15T08:32:41.247Z,45.90
2019-06-15T08:35:11.304Z,45.70
2019-06-15T08:37:41.930Z,45.30
2019-06-15T08:40:11.535Z,44.90
2019-06-15T08:42:41.085Z,43.80
2019-06-15T08:45:10.852Z,42.90
2019-06-15T08:47:40.448Z,41.90
2019-06-15T08:50:10.640Z,41.70
2019-06-15T08:52:40.237Z,41.60
2019-06-15T08:55:10.200Z,41.50
2019-06-15T08:57:40.625Z,42.60
2019-06-15T09:00:10.767Z,44.60
2019-06-15T09:02:40.372Z,46.60
2019-06-15T09:05:09.973Z,49.00
2019-06-15T09:07:39.511Z,49.90
2019-06-15T09:10:09.608Z,51.40
2019-06-15T09:12:39.389Z,52.10
2019-06-15T09:15:09.548Z,52.30
2019-06-15T09:17:39.098Z,52.80
2019-06-15T09:20:10.011Z,54.30
2019-06-15T09:22:39.540Z,56.40
2019-06-15T09:25:09.188Z,57.00
2019-06-15T09:27:38.662Z,58.60
2019-06-15T09:30:08.447Z,59.40
2019-06-15T09:32:38.010Z,59.90
2019-06-15T09:35:07.967Z,60.00
2019-06-15T09:37:37.508Z,60.80
2019-06-15T09:40:08.121Z,60.40
2019-06-15T09:42:37.664Z,61.50
2019-06-15T09:45:08.601Z,62.10
2019-06-15T09:47:38.235Z,60.90
2019-06-15T09:50:08.428Z,61.50
2019-06-15T09:52:37.973Z,62.20
2019-06-15T09:55:07.839Z,63.90
2019-06-15T09:57:37.381Z,66.20
2019-06-15T10:00:11.128Z,66.80
2019-06-15T10:02:40.841Z,66.40
2019-06-15T10:05:11.920Z,66.90
2019-06-15T10:07:41.478Z,66.80
2019-06-15T10:10:12.358Z,67.00
2019-06-15T10:12:41.904Z,66.90
2019-06-15T10:15:12.399Z,67.90
2019-06-15T10:17:42.025Z,67.70
2019-06-15T10:20:12.007Z,67.40
2019-06-15T10:22:41.543Z,66.90
2019-06-15T10:25:11.447Z,67.60
2019-06-15T10:27:41.053Z,68.40
2019-06-15T10:30:10.964Z,67.30
2019-06-15T10:32:40.691Z,66.10
2019-06-15T10:35:11.184Z,66.20
2019-06-15T10:37:40.661Z,67.50
2019-06-15T10:40:12.819Z,68.40
2019-06-15T10:42:42.368Z,70.00
2019-06-15T10:45:12.064Z,73.40
2019-06-15T10:47:41.628Z,73.70
2019-06-15T10:50:11.806Z,73.40
2019-06-15T10:52:41.335Z,74.80
2019-06-15T10:55:11.421Z,76.90
2019-06-15T10:57:41.061Z,75.80
2019-06-15T11:00:12.373Z,77.80
2019-06-15T11:02:41.858Z,78.60
2019-06-15T11:05:13.560Z,78.10
2019-06-15T11:07:43.028Z,78.70
2019-06-15T11:10:14.903Z,79.90
2019-06-15T11:12:46.588Z,81.80
2019-06-15T11:15:16.071Z,82.30
2019-06-15T11:17:45.578Z,80.10
2019-06-15T11:20:15.330Z,80.40
2019-06-15T11:22:44.872Z,80.90
2019-06-15T11:25:14.346Z,82.40
2019-06-15T11:27:43.988Z,82.40
2019-06-15T11:30:14.779Z,83.00
2019-06-15T11:32:44.680Z,83.20
2019-06-15T11:35:14.428Z,84.20
2019-06-15T11:37:44.112Z,85.40
2019-06-15T11:40:13.778Z,86.80
2019-06-15T11:42:43.263Z,88.20
2019-06-15T11:45:13.029Z,87.20
2019-06-15T11:47:42.537Z,87.70
2019-06-15T11:50:12.471Z,87.50
2019-06-15T11:52:41.939Z,89.90
2019-06-15T11:55:11.624Z,89.50
2019-06-15T11:57:41.100Z,89.90
2019-06-15T12:00:11.519Z,89.00
2019-06-15T12:02:40.996Z,87.10
2019-06-15T12:05:10.474Z,86.60
2019-06-15T12:07:39.935Z,87.00
2019-06-15T12:10:09.689Z,87.90
2019-06-15T12:12:39.155Z,87.60
2019-06-15T12:15:09.418Z,87.80
2019-06-15T12:17:39.128Z,88.00
2019-06-15T12:20:08.665Z,86.20
2019-06-15T12:22:38.327Z,85.80
2019-06-15T12:25:08.156Z,86.40
2019-06-15T12:27:37.630Z,87.40
2019-06-15T12:30:09.311Z,88.80
2019-06-15T12:32:39.049Z,89.40
2019-06-15T12:35:09.475Z,90.40
2019-06-15T12:37:39.103Z,90.10
2019-06-15T12:40:08.653Z,90.10
2019-06-15T12:42:38.266Z,90.00
2019-06-15T12:45:08.083Z,90.10
2019-06-15T12:47:37.543Z,88.60
2019-06-15T12:50:07.360Z,88.60
2019-06-15T12:52:37.116Z,88.60
2019-06-15T12:55:06.653Z,88.50
2019-06-15T12:57:36.227Z,88.70
2019-06-15T13:00:09.341Z,88.80
2019-06-15T13:02:39.073Z,90.10
2019-06-15T13:05:08.899Z,91.10
2019-06-15T13:07:38.363Z,92.40
2019-06-15T13:10:08.279Z,91.80
2019-06-15T13:12:37.743Z,92.30
2019-06-15T13:15:07.847Z,92.90
2019-06-15T13:17:37.455Z,94.00
2019-06-15T13:20:07.549Z,94.80
2019-06-15T13:22:37.400Z,95.40
2019-06-15T13:25:08.380Z,94.90
2019-06-15T13:27:37.924Z,94.80
2019-06-15T13:30:09.116Z,94.50
2019-06-15T13:32:38.735Z,94.90
2019-06-15T13:35:08.688Z,94.20
2019-06-15T13:37:42.169Z,94.60
2019-06-15T13:40:09.719Z,94.50
2019-06-15T13:42:39.297Z,93.70
2019-06-15T13:45:09.653Z,93.20
2019-06-15T13:47:39.185Z,93.30
2019-06-15T13:50:09.388Z,93.10
2019-06-15T13:52:39.224Z,93.50
2019-06-15T13:55:09.446Z,93.50
2019-06-15T13:57:38.976Z,93.00
2019-06-15T14:00:08.996Z,93.00
2019-06-15T14:02:38.622Z,93.90
2019-06-15T14:05:08.767Z,93.70
2019-06-15T14:07:38.351Z,94.40
2019-06-15T14:10:12.912Z,94.90
2019-06-15T14:12:42.456Z,95.40
2019-06-15T14:15:12.360Z,95.30
2019-06-15T14:17:41.968Z,94.70
2019-06-15T14:20:11.767Z,94.70
2019-06-15T14:22:41.472Z,94.50
2019-06-15T14:25:11.447Z,94.60
2019-06-15T14:27:41.408Z,94.30
2019-06-15T14:30:11.629Z,94.40
2019-06-15T14:32:41.371Z,93.30
2019-06-15T14:35:11.669Z,92.90
2019-06-15T14:37:41.318Z,93.20
2019-06-15T14:40:11.386Z,92.80
2019-06-15T14:42:41.468Z,92.70
2019-06-15T14:45:11.404Z,92.20
2019-06-15T14:47:41.136Z,92.20
2019-06-15T14:50:10.847Z,92.70
2019-06-15T14:52:40.707Z,93.00
2019-06-15T14:55:11.318Z,93.00
2019-06-15T14:57:41.190Z,92.40
2019-06-15T15:00:11.022Z,92.40
2019-06-15T15:02:40.608Z,91.30
2019-06-15T15:05:10.307Z,91.70
2019-06-15T15:07:39.782Z,91.80
2019-06-15T15:10:09.791Z,91.20
2019-06-15T15:12:41.655Z,91.30
2019-06-15T15:15:11.242Z,91.70
2019-06-15T15:17:40.810Z,92.00
2019-06-15T15:20:10.522Z,91.70
2019-06-15T15:22:40.772Z,91.90
2019-06-15T15:25:10.915Z,92.10
2019-06-15T15:27:40.834Z,92.60
2019-06-15T15:30:11.079Z,92.70
2019-06-15T15:32:40.701Z,93.00
2019-06-15T15:35:10.579Z,93.20
2019-06-15T15:37:40.541Z,93.60
2019-06-15T15:40:10.148Z,94.10
2019-06-15T15:42:39.634Z,95.20
2019-06-15T15:45:09.422Z,96.00
2019-06-15T15:47:38.943Z,96.60
2019-06-15T15:50:08.687Z,97.10
2019-06-15T15:52:38.348Z,97.70
2019-06-15T15:55:07.984Z,98.40
2019-06-15T15:57:37.455Z,99.30
2019-06-15T16:00:08.844Z,99.90
2019-06-15T16:02:47.570Z,99.90
2019-06-15T16:05:09.723Z,99.90
2019-06-15T16:07:39.436Z,99.90
2019-06-15T16:10:09.513Z,99.90
2019-06-15T16:12:39.065Z,99.30
2019-06-15T16:15:09.031Z,99.00
2019-06-15T16:17:38.600Z,98.90
2019-06-15T16:20:17.060Z,99.60
2019-06-15T16:22:46.960Z,99.80
2019-06-15T16:25:17.161Z,99.90
2019-06-15T16:27:46.879Z,99.90
2019-06-15T16:30:46.143Z,99.90
2019-06-15T16:33:03.722Z,99.90
2019-06-15T16:35:29.229Z,99.90
2019-06-15T16:37:59.675Z,99.90
2019-06-15T16:40:39.532Z,99.90
2019-06-15T16:43:09.337Z,99.90
2019-06-15T16:45:39.370Z,99.90
2019-06-15T16:48:09.030Z,99.90
2019-06-15T16:50:38.488Z,99.90
2019-06-15T16:53:08.139Z,99.90
2019-06-15T16:55:37.781Z,99.90
2019-06-15T16:58:07.758Z,99.90
2019-06-15T17:00:37.542Z,99.90
2019-06-15T17:03:19.720Z,99.90
2019-06-15T17:05:38.576Z,99.90
2019-06-15T17:08:08.352Z,99.90
2019-06-15T17:10:39.309Z,99.90
2019-06-15T17:13:09.425Z,99.90
2019-06-15T17:15:39.277Z,99.90
2019-06-15T17:18:09.903Z,99.90
2019-06-15T17:20:47.956Z,99.90
2019-06-15T17:23:18.184Z,99.90
2019-06-15T17:25:48.426Z,99.90
2019-06-15T17:28:18.099Z,99.90
2019-06-15T17:30:47.657Z,99.90
2019-06-15T17:33:30.524Z,99.90
2019-06-15T17:35:59.015Z,99.90
2019-06-15T17:38:20.552Z,99.90
2019-06-15T17:40:50.150Z,99.90
2019-06-15T17:43:19.605Z,99.90
2019-06-15T17:45:49.307Z,99.90
2019-06-15T17:48:19.446Z,99.90
2019-06-15T17:50:49.039Z,99.80
2019-06-15T17:53:18.647Z,99.80
2019-06-15T17:55:48.290Z,99.90
2019-06-15T17:58:17.864Z,99.90
2019-06-15T18:00:48.343Z,99.90
2019-06-15T18:03:18.208Z,99.90
2019-06-15T18:05:48.458Z,99.90
2019-06-15T18:08:18.400Z,99.90
2019-06-15T18:10:48.172Z,99.90
2019-06-15T18:13:17.799Z,99.90
2019-06-15T18:15:48.093Z,99.90
2019-06-15T18:18:17.711Z,99.90
2019-06-15T18:20:47.292Z,99.90
2019-06-15T18:23:17.799Z,99.90
2019-06-15T18:25:47.615Z,99.90
2019-06-15T18:28:17.933Z,99.90
2019-06-15T18:30:47.864Z,99.90
2019-06-15T18:33:17.607Z,99.90
2019-06-15T18:35:47.753Z,99.90
2019-06-15T18:38:17.892Z,99.90
2019-06-15T18:40:47.355Z,99.90
2019-06-15T18:43:17.044Z,99.90
2019-06-15T18:45:47.372Z,99.90
2019-06-15T18:48:17.113Z,99.90
2019-06-15T18:50:46.701Z,99.90
2019-06-15T18:53:16.156Z,99.90
2019-06-15T18:55:47.223Z,99.90
2019-06-15T18:58:17.612Z,99.90
2019-06-15T19:00:47.216Z,99.90
2019-06-15T19:03:17.034Z,99.90
2019-06-15T19:05:47.587Z,99.90
2019-06-15T19:08:17.626Z,99.90
2019-06-15T19:10:47.392Z,99.90
2019-06-15T19:13:17.113Z,99.90
2019-06-15T19:15:47.216Z,99.90
2019-06-15T19:18:17.814Z,99.90
2019-06-15T19:20:47.567Z,99.90
2019-06-15T19:23:17.227Z,99.90
2019-06-15T19:25:47.158Z,99.90
2019-06-15T19:28:17.074Z,99.90
2019-06-15T19:30:47.175Z,99.90
2019-06-15T19:33:17.105Z,99.90
2019-06-15T19:35:46.736Z,99.90
2019-06-15T19:38:16.627Z,99.90
2019-06-15T19:40:46.422Z,99.90
2019-06-15T19:43:16.414Z,99.90
2019-06-15T19:45:46.340Z,99.90
2019-06-15T19:48:17.075Z,99.90
2019-06-15T19:50:47.058Z,99.90
2019-06-15T19:53:17.208Z,99.90
2019-06-15T19:55:47.292Z,99.90
2019-06-15T19:58:16.936Z,99.90
2019-06-15T20:00:47.099Z,99.90
2019-06-15T20:03:17.164Z,99.90
2019-06-15T20:05:46.709Z,99.90
2019-06-15T20:08:17.746Z,99.90
2019-06-15T20:10:47.791Z,99.90
2019-06-15T20:13:17.354Z,99.90
2019-06-15T20:15:47.154Z,99.90
2019-06-15T20:18:17.673Z,99.90
2019-06-15T20:20:47.512Z,99.90
2019-06-15T20:23:17.113Z,99.90
2019-06-15T20:25:47.141Z,99.90
2019-06-15T20:28:16.731Z,99.90
2019-06-15T20:30:48.044Z,99.90
2019-06-15T20:33:17.717Z,99.90
2019-06-15T20:35:47.450Z,99.90
2019-06-15T20:38:17.378Z,99.90
2019-06-15T20:40:48.127Z,99.90
2019-06-15T20:43:17.674Z,99.90
2019-06-15T20:45:47.983Z,99.90
2019-06-15T20:48:17.500Z,99.90
2019-06-15T20:50:47.439Z,99.90
2019-06-15T20:53:17.332Z,99.90
2019-06-15T20:55:46.947Z,99.90
2019-06-15T20:58:17.158Z,99.90
2019-06-15T21:00:47.764Z,99.90
2019-06-15T21:03:17.507Z,99.90
2019-06-15T21:05:47.810Z,99.90
2019-06-15T21:08:17.583Z,99.90
2019-06-15T21:10:47.141Z,99.90
2019-06-15T21:13:17.162Z,99.90
2019-06-15T21:15:47.620Z,99.90
2019-06-15T21:18:17.456Z,99.90
2019-06-15T21:20:47.319Z,99.90
2019-06-15T21:23:17.180Z,99.90
2019-06-15T21:25:47.076Z,99.90
2019-06-15T21:28:17.097Z,99.90
2019-06-15T21:30:47.460Z,99.90
2019-06-15T21:33:17.136Z,99.90
2019-06-15T21:35:52.393Z,99.90
2019-06-15T21:38:18.326Z,99.90
2019-06-15T21:40:48.021Z,99.90
2019-06-15T21:43:17.483Z,99.90
2019-06-15T21:45:47.127Z,99.90
2019-06-15T21:48:16.639Z,99.90
2019-06-15T21:50:47.193Z,99.90
2019-06-15T21:53:17.179Z,99.90
2019-06-15T21:55:47.349Z,99.90
2019-06-15T21:58:17.084Z,99.90
2019-06-15T22:01:06.233Z,99.90
2019-06-15T22:03:36.795Z,99.90
2019-06-15T22:06:06.686Z,99.90
2019-06-15T22:08:37.077Z,99.90
2019-06-15T22:11:06.908Z,99.90
2019-06-15T22:13:37.378Z,99.90
2019-06-15T22:16:07.267Z,99.90
2019-06-15T22:18:37.137Z,99.90
2019-06-15T22:21:06.792Z,99.90
2019-06-15T22:23:36.662Z,99.90
2019-06-15T22:26:07.015Z,99.90
2019-06-15T22:28:36.880Z,99.90
2019-06-15T22:31:06.851Z,99.90
2019-06-15T22:33:37.061Z,99.90
2019-06-15T22:36:21.285Z,99.90
2019-06-15T22:38:37.957Z,99.90
2019-06-15T22:41:07.699Z,99.90
2019-06-15T22:43:37.287Z,99.90
2019-06-15T22:46:07.585Z,99.90
2019-06-15T22:48:37.352Z,99.90
2019-06-15T22:51:07.024Z,99.90
2019-06-15T22:53:36.744Z,99.90
2019-06-15T22:56:06.777Z,99.90
2019-06-15T22:58:36.790Z,99.90
2019-06-15T23:01:06.478Z,99.90
2019-06-15T23:03:36.086Z,99.90
2019-06-15T23:06:06.913Z,99.90
2019-06-15T23:08:36.736Z,99.90
2019-06-15T23:11:06.846Z,99.90
2019-06-15T23:13:36.989Z,99.90
2019-06-15T23:16:06.684Z,99.90
2019-06-15T23:18:36.353Z,99.90
2019-06-15T23:21:06.528Z,99.90
2019-06-15T23:23:36.372Z,99.90
2019-06-15T23:26:06.521Z,99.90
2019-06-15T23:28:36.211Z,99.90
2019-06-15T23:31:07.545Z,99.90
2019-06-15T23:33:36.956Z,99.90
2019-06-15T23:36:17.145Z,99.90
2019-06-15T23:38:47.371Z,99.90
2019-06-15T23:41:16.932Z,99.90
2019-06-15T23:43:46.514Z,99.90
2019-06-15T23:46:16.128Z,99.90
2019-06-15T23:48:47.011Z,99.90
2019-06-15T23:51:17.122Z,99.90
2019-06-15T23:53:46.830Z,99.90
2019-06-15T23:56:16.304Z,99.90
2019-06-15T23:58:46.338Z,99.90
